sensor_id;sensor_type;location;lat;lon;timestamp;pressure;altitude;pressure_sealevel;temperature;humidity
21960;BME280;11144;43.030;25.108;2023-10-09T00:00:10;99925.19;;;15.30;51.13
21960;BME280;11144;43.030;25.108;2023-10-09T00:01:57;99918.47;;;15.28;50.96
21960;BME280;11144;43.030;25.108;2023-10-09T00:03:31;99924.16;;;15.31;51.01
21960;BME280;11144;43.030;25.108;2023-10-09T00:05:04;99919.50;;;15.33;51.10
21960;BME280;11144;43.030;25.108;2023-10-09T00:06:48;99925.81;;;15.32;50.88
21960;BME280;11144;43.030;25.108;2023-10-09T00:08:20;99905.81;;;15.17;50.97
21960;BME280;11144;43.030;25.108;2023-10-09T00:09:58;99926.91;;;15.10;51.10
21960;BME280;11144;43.030;25.108;2023-10-09T00:11:32;99920.13;;;14.95;51.11
21960;BME280;11144;43.030;25.108;2023-10-09T00:13:10;99925.38;;;14.88;51.21
21960;BME280;11144;43.030;25.108;2023-10-09T00:14:44;99929.00;;;14.87;51.26
21960;BME280;11144;43.030;25.108;2023-10-09T00:16:21;99930.44;;;14.90;51.14
21960;BME280;11144;43.030;25.108;2023-10-09T00:18:05;99935.56;;;14.91;50.83
21960;BME280;11144;43.030;25.108;2023-10-09T00:19:45;99930.66;;;14.88;51.07
21960;BME280;11144;43.030;25.108;2023-10-09T00:21:21;99925.34;;;14.82;50.94
21960;BME280;11144;43.030;25.108;2023-10-09T00:22:55;99935.66;;;14.76;51.06
21960;BME280;11144;43.030;25.108;2023-10-09T00:24:32;99916.88;;;14.65;51.11
21960;BME280;11144;43.030;25.108;2023-10-09T00:26:04;99929.94;;;14.73;51.16
21960;BME280;11144;43.030;25.108;2023-10-09T00:27:53;99937.38;;;14.63;51.33
21960;BME280;11144;43.030;25.108;2023-10-09T00:29:26;99938.53;;;14.54;51.59
21960;BME280;11144;43.030;25.108;2023-10-09T00:31:00;99942.56;;;14.50;51.25
21960;BME280;11144;43.030;25.108;2023-10-09T00:32:36;99937.44;;;14.42;51.51
21960;BME280;11144;43.030;25.108;2023-10-09T00:34:17;99943.69;;;14.41;51.74
21960;BME280;11144;43.030;25.108;2023-10-09T00:35:51;99941.06;;;14.41;51.39
21960;BME280;11144;43.030;25.108;2023-10-09T00:37:27;99950.22;;;14.45;51.52
21960;BME280;11144;43.030;25.108;2023-10-09T00:39:07;99949.84;;;14.48;51.32
21960;BME280;11144;43.030;25.108;2023-10-09T00:40:52;99945.19;;;14.50;51.25
21960;BME280;11144;43.030;25.108;2023-10-09T00:42:37;99942.91;;;14.40;51.58
21960;BME280;11144;43.030;25.108;2023-10-09T00:44:11;99957.41;;;14.51;51.35
21960;BME280;11144;43.030;25.108;2023-10-09T00:45:44;99966.88;;;14.45;51.27
21960;BME280;11144;43.030;25.108;2023-10-09T00:47:17;99959.34;;;14.42;51.37
21960;BME280;11144;43.030;25.108;2023-10-09T00:48:57;99962.72;;;14.36;51.86
21960;BME280;11144;43.030;25.108;2023-10-09T00:50:34;99964.31;;;14.31;51.54
21960;BME280;11144;43.030;25.108;2023-10-09T00:52:08;99978.50;;;14.30;51.87
21960;BME280;11144;43.030;25.108;2023-10-09T00:53:51;99980.16;;;14.31;51.60
21960;BME280;11144;43.030;25.108;2023-10-09T00:55:27;99986.88;;;14.33;51.63
21960;BME280;11144;43.030;25.108;2023-10-09T00:57:10;99986.03;;;14.33;51.52
21960;BME280;11144;43.030;25.108;2023-10-09T00:58:46;99987.50;;;14.35;51.50
21960;BME280;11144;43.030;25.108;2023-10-09T01:00:19;100000.06;;;14.33;51.49
21960;BME280;11144;43.030;25.108;2023-10-09T01:02:18;99992.13;;;14.33;51.58
21960;BME280;11144;43.030;25.108;2023-10-09T01:03:51;99991.69;;;14.30;51.64
21960;BME280;11144;43.030;25.108;2023-10-09T01:05:25;99994.78;;;14.33;51.43
21960;BME280;11144;43.030;25.108;2023-10-09T01:06:59;99993.34;;;14.31;51.61
21960;BME280;11144;43.030;25.108;2023-10-09T01:08:53;99998.22;;;14.34;51.33
21960;BME280;11144;43.030;25.108;2023-10-09T01:10:51;100005.13;;;14.35;51.88
21960;BME280;11144;43.030;25.108;2023-10-09T01:12:28;100008.50;;;14.29;51.41
21960;BME280;11144;43.030;25.108;2023-10-09T01:14:02;100002.59;;;14.27;51.59
21960;BME280;11144;43.030;25.108;2023-10-09T01:15:44;100010.16;;;14.30;51.19
21960;BME280;11144;43.030;25.108;2023-10-09T01:17:18;100004.22;;;14.28;51.13
21960;BME280;11144;43.030;25.108;2023-10-09T01:19:03;100005.50;;;14.32;50.82
21960;BME280;11144;43.030;25.108;2023-10-09T01:20:52;100003.78;;;14.24;50.69
21960;BME280;11144;43.030;25.108;2023-10-09T01:22:25;100005.16;;;14.20;50.61
21960;BME280;11144;43.030;25.108;2023-10-09T01:23:59;100009.81;;;14.18;50.27
21960;BME280;11144;43.030;25.108;2023-10-09T01:25:37;99992.22;;;14.04;50.08
21960;BME280;11144;43.030;25.108;2023-10-09T01:27:16;100017.47;;;14.13;49.90
21960;BME280;11144;43.030;25.108;2023-10-09T01:28:49;100028.56;;;14.09;49.63
21960;BME280;11144;43.030;25.108;2023-10-09T01:30:22;100018.13;;;14.00;49.64
21960;BME280;11144;43.030;25.108;2023-10-09T01:31:57;100027.69;;;14.01;49.74
21960;BME280;11144;43.030;25.108;2023-10-09T01:33:33;100025.47;;;14.05;49.64
21960;BME280;11144;43.030;25.108;2023-10-09T01:35:08;100026.28;;;14.05;49.53
21960;BME280;11144;43.030;25.108;2023-10-09T01:36:53;100030.38;;;14.08;49.27
21960;BME280;11144;43.030;25.108;2023-10-09T01:38:28;100035.47;;;14.10;49.01
21960;BME280;11144;43.030;25.108;2023-10-09T01:40:15;100045.44;;;14.14;48.77
21960;BME280;11144;43.030;25.108;2023-10-09T01:41:57;100037.66;;;14.06;48.47
21960;BME280;11144;43.030;25.108;2023-10-09T01:43:31;100047.72;;;14.17;48.67
21960;BME280;11144;43.030;25.108;2023-10-09T01:45:07;100053.81;;;14.18;48.67
21960;BME280;11144;43.030;25.108;2023-10-09T01:46:49;100046.91;;;14.17;48.32
21960;BME280;11144;43.030;25.108;2023-10-09T01:48:26;100054.00;;;14.16;48.22
21960;BME280;11144;43.030;25.108;2023-10-09T01:50:01;100041.13;;;14.07;47.95
21960;BME280;11144;43.030;25.108;2023-10-09T01:51:37;100051.13;;;14.11;47.48
21960;BME280;11144;43.030;25.108;2023-10-09T01:53:10;100057.94;;;14.05;47.41
21960;BME280;11144;43.030;25.108;2023-10-09T01:54:51;100065.56;;;14.00;47.34
21960;BME280;11144;43.030;25.108;2023-10-09T01:56:26;100071.66;;;14.01;47.39
21960;BME280;11144;43.030;25.108;2023-10-09T01:57:59;100044.78;;;13.91;47.03
21960;BME280;11144;43.030;25.108;2023-10-09T01:59:38;100065.13;;;13.97;47.22
21960;BME280;11144;43.030;25.108;2023-10-09T02:01:10;100061.50;;;13.98;46.67
21960;BME280;11144;43.030;25.108;2023-10-09T02:02:44;100063.13;;;13.99;46.86
21960;BME280;11144;43.030;25.108;2023-10-09T02:04:17;100068.59;;;13.97;46.55
21960;BME280;11144;43.030;25.108;2023-10-09T02:05:53;100074.69;;;13.98;46.25
21960;BME280;11144;43.030;25.108;2023-10-09T02:07:31;100076.88;;;13.94;45.96
21960;BME280;11144;43.030;25.108;2023-10-09T02:09:13;100078.44;;;13.89;45.82
21960;BME280;11144;43.030;25.108;2023-10-09T02:10:54;100081.31;;;13.94;45.85
21960;BME280;11144;43.030;25.108;2023-10-09T02:12:29;100078.03;;;13.92;45.41
21960;BME280;11144;43.030;25.108;2023-10-09T02:14:05;100078.88;;;13.92;45.21
21960;BME280;11144;43.030;25.108;2023-10-09T02:15:51;100079.06;;;13.91;45.02
21960;BME280;11144;43.030;25.108;2023-10-09T02:17:26;100071.50;;;13.88;45.15
21960;BME280;11144;43.030;25.108;2023-10-09T02:19:01;100066.44;;;13.86;44.68
21960;BME280;11144;43.030;25.108;2023-10-09T02:20:40;100062.53;;;13.82;44.67
21960;BME280;11144;43.030;25.108;2023-10-09T02:22:12;100073.78;;;13.76;44.27
21960;BME280;11144;43.030;25.108;2023-10-09T02:23:45;100073.63;;;13.78;44.56
21960;BME280;11144;43.030;25.108;2023-10-09T02:25:23;100077.06;;;13.78;44.28
21960;BME280;11144;43.030;25.108;2023-10-09T02:27:01;100075.44;;;13.77;44.12
21960;BME280;11144;43.030;25.108;2023-10-09T02:28:42;100073.00;;;13.76;43.47
21960;BME280;11144;43.030;25.108;2023-10-09T02:30:15;100075.34;;;13.71;43.62
21960;BME280;11144;43.030;25.108;2023-10-09T02:31:51;100080.19;;;13.67;43.58
21960;BME280;11144;43.030;25.108;2023-10-09T02:33:33;100084.44;;;13.68;43.84
21960;BME280;11144;43.030;25.108;2023-10-09T02:35:09;100076.25;;;13.63;43.84
21960;BME280;11144;43.030;25.108;2023-10-09T02:36:50;100075.28;;;13.64;43.69
21960;BME280;11144;43.030;25.108;2023-10-09T02:38:29;100085.63;;;13.66;43.57
21960;BME280;11144;43.030;25.108;2023-10-09T02:40:07;100080.97;;;13.68;43.59
21960;BME280;11144;43.030;25.108;2023-10-09T02:41:40;100086.09;;;13.69;43.52
21960;BME280;11144;43.030;25.108;2023-10-09T02:43:21;100081.44;;;13.71;43.64
21960;BME280;11144;43.030;25.108;2023-10-09T02:44:58;100088.53;;;13.71;43.40
21960;BME280;11144;43.030;25.108;2023-10-09T02:46:35;100094.88;;;13.76;43.32
21960;BME280;11144;43.030;25.108;2023-10-09T02:48:08;100099.34;;;13.76;43.44
21960;BME280;11144;43.030;25.108;2023-10-09T02:49:43;100088.41;;;13.79;43.42
21960;BME280;11144;43.030;25.108;2023-10-09T02:51:15;100087.78;;;13.77;43.34
21960;BME280;11144;43.030;25.108;2023-10-09T02:53:03;100096.31;;;13.79;43.39
21960;BME280;11144;43.030;25.108;2023-10-09T02:54:41;100099.59;;;13.81;43.37
21960;BME280;11144;43.030;25.108;2023-10-09T02:56:14;100103.69;;;13.83;43.34
21960;BME280;11144;43.030;25.108;2023-10-09T02:57:49;100108.97;;;13.83;43.25
21960;BME280;11144;43.030;25.108;2023-10-09T02:59:24;100109.16;;;13.82;43.33
21960;BME280;11144;43.030;25.108;2023-10-09T03:00:58;100108.13;;;13.83;43.42
21960;BME280;11144;43.030;25.108;2023-10-09T03:02:32;100109.22;;;13.88;43.27
21960;BME280;11144;43.030;25.108;2023-10-09T03:04:04;100114.06;;;13.85;43.06
21960;BME280;11144;43.030;25.108;2023-10-09T03:05:37;100117.69;;;13.84;42.99
21960;BME280;11144;43.030;25.108;2023-10-09T03:07:14;100110.97;;;13.81;43.10
21960;BME280;11144;43.030;25.108;2023-10-09T03:08:48;100094.44;;;13.73;43.18
21960;BME280;11144;43.030;25.108;2023-10-09T03:10:22;100120.53;;;13.82;43.30
21960;BME280;11144;43.030;25.108;2023-10-09T03:11:58;100115.34;;;13.89;43.06
21960;BME280;11144;43.030;25.108;2023-10-09T03:13:35;100117.69;;;13.84;43.24
21960;BME280;11144;43.030;25.108;2023-10-09T03:15:09;100112.97;;;13.79;43.20
21960;BME280;11144;43.030;25.108;2023-10-09T03:16:44;100117.41;;;13.79;43.33
21960;BME280;11144;43.030;25.108;2023-10-09T03:18:17;100128.50;;;13.74;43.38
21960;BME280;11144;43.030;25.108;2023-10-09T03:19:50;100131.13;;;13.74;43.47
21960;BME280;11144;43.030;25.108;2023-10-09T03:21:24;100124.25;;;13.73;43.31
21960;BME280;11144;43.030;25.108;2023-10-09T03:22:56;100117.94;;;13.74;43.47
21960;BME280;11144;43.030;25.108;2023-10-09T03:24:29;100119.59;;;13.75;43.27
21960;BME280;11144;43.030;25.108;2023-10-09T03:26:03;100123.22;;;13.74;43.33
21960;BME280;11144;43.030;25.108;2023-10-09T03:27:52;100116.16;;;13.75;43.35
21960;BME280;11144;43.030;25.108;2023-10-09T03:29:28;100119.31;;;13.70;43.43
21960;BME280;11144;43.030;25.108;2023-10-09T03:31:00;100122.34;;;13.67;43.35
21960;BME280;11144;43.030;25.108;2023-10-09T03:32:36;100126.06;;;13.58;43.68
21960;BME280;11144;43.030;25.108;2023-10-09T03:34:08;100122.31;;;13.53;43.60
21960;BME280;11144;43.030;25.108;2023-10-09T03:35:43;100122.13;;;13.54;43.64
21960;BME280;11144;43.030;25.108;2023-10-09T03:37:16;100125.13;;;13.51;43.80
21960;BME280;11144;43.030;25.108;2023-10-09T03:38:54;100127.78;;;13.51;43.90
21960;BME280;11144;43.030;25.108;2023-10-09T03:40:30;100126.75;;;13.52;44.13
21960;BME280;11144;43.030;25.108;2023-10-09T03:42:04;100125.78;;;13.53;44.01
21960;BME280;11144;43.030;25.108;2023-10-09T03:43:37;100118.59;;;13.62;43.69
21960;BME280;11144;43.030;25.108;2023-10-09T03:45:12;100105.44;;;13.47;43.70
21960;BME280;11144;43.030;25.108;2023-10-09T03:46:56;100129.13;;;13.62;43.81
21960;BME280;11144;43.030;25.108;2023-10-09T03:48:31;100131.97;;;13.60;43.92
21960;BME280;11144;43.030;25.108;2023-10-09T03:50:05;100130.69;;;13.56;43.84
21960;BME280;11144;43.030;25.108;2023-10-09T03:51:56;100134.59;;;13.60;43.87
21960;BME280;11144;43.030;25.108;2023-10-09T03:53:31;100137.59;;;13.57;43.87
21960;BME280;11144;43.030;25.108;2023-10-09T03:55:04;100140.22;;;13.57;44.00
21960;BME280;11144;43.030;25.108;2023-10-09T03:56:42;100137.59;;;13.57;44.07
21960;BME280;11144;43.030;25.108;2023-10-09T03:58:16;100140.03;;;13.59;43.90
21960;BME280;11144;43.030;25.108;2023-10-09T03:59:51;100137.22;;;13.60;43.90
21960;BME280;11144;43.030;25.108;2023-10-09T04:01:25;100148.56;;;13.61;44.16
21960;BME280;11144;43.030;25.108;2023-10-09T04:03:00;100146.13;;;13.59;43.95
21960;BME280;11144;43.030;25.108;2023-10-09T04:04:36;100151.03;;;13.62;44.10
21960;BME280;11144;43.030;25.108;2023-10-09T04:06:08;100154.31;;;13.64;44.10
21960;BME280;11144;43.030;25.108;2023-10-09T04:07:43;100157.13;;;13.63;44.11
21960;BME280;11144;43.030;25.108;2023-10-09T04:09:15;100145.84;;;13.54;43.89
21960;BME280;11144;43.030;25.108;2023-10-09T04:11:07;100162.31;;;13.56;44.30
21960;BME280;11144;43.030;25.108;2023-10-09T04:12:48;100165.56;;;13.58;44.33
21960;BME280;11144;43.030;25.108;2023-10-09T04:14:24;100168.22;;;13.58;44.13
21960;BME280;11144;43.030;25.108;2023-10-09T04:16:05;100160.31;;;13.58;44.22
21960;BME280;11144;43.030;25.108;2023-10-09T04:18:03;100157.72;;;13.50;44.10
21960;BME280;11144;43.030;25.108;2023-10-09T04:19:39;100160.22;;;13.52;44.05
21960;BME280;11144;43.030;25.108;2023-10-09T04:21:20;100158.75;;;13.49;44.28
21960;BME280;11144;43.030;25.108;2023-10-09T04:23:06;100157.91;;;13.49;44.06
21960;BME280;11144;43.030;25.108;2023-10-09T04:24:38;100151.00;;;13.48;44.25
21960;BME280;11144;43.030;25.108;2023-10-09T04:26:14;100149.91;;;13.42;43.98
21960;BME280;11144;43.030;25.108;2023-10-09T04:27:46;100170.69;;;13.37;43.79
21960;BME280;11144;43.030;25.108;2023-10-09T04:29:20;100168.59;;;13.32;43.87
21960;BME280;11144;43.030;25.108;2023-10-09T04:30:58;100167.13;;;13.30;43.87
21960;BME280;11144;43.030;25.108;2023-10-09T04:32:38;100175.31;;;13.35;43.69
21960;BME280;11144;43.030;25.108;2023-10-09T04:34:12;100174.34;;;13.36;43.70
21960;BME280;11144;43.030;25.108;2023-10-09T04:36:03;100168.16;;;13.29;43.81
21960;BME280;11144;43.030;25.108;2023-10-09T04:37:54;100174.16;;;13.38;43.63
21960;BME280;11144;43.030;25.108;2023-10-09T04:39:36;100180.88;;;13.40;43.72
21960;BME280;11144;43.030;25.108;2023-10-09T04:41:18;100180.34;;;13.45;43.76
21960;BME280;11144;43.030;25.108;2023-10-09T04:42:59;100182.81;;;13.46;43.72
21960;BME280;11144;43.030;25.108;2023-10-09T04:44:31;100171.28;;;13.47;43.61
21960;BME280;11144;43.030;25.108;2023-10-09T04:46:08;100174.38;;;13.51;43.62
21960;BME280;11144;43.030;25.108;2023-10-09T04:47:44;100165.38;;;13.45;43.78
21960;BME280;11144;43.030;25.108;2023-10-09T04:49:30;100177.97;;;13.50;43.71
21960;BME280;11144;43.030;25.108;2023-10-09T04:51:19;100176.19;;;13.50;43.80
21960;BME280;11144;43.030;25.108;2023-10-09T04:53:03;100180.81;;;13.48;43.96
21960;BME280;11144;43.030;25.108;2023-10-09T04:54:54;100177.94;;;13.58;43.87
21960;BME280;11144;43.030;25.108;2023-10-09T04:56:48;100179.00;;;13.63;43.68
21960;BME280;11144;43.030;25.108;2023-10-09T04:58:27;100185.94;;;13.64;43.44
21960;BME280;11144;43.030;25.108;2023-10-09T05:00:05;100192.81;;;13.65;43.70
21960;BME280;11144;43.030;25.108;2023-10-09T05:01:39;100188.56;;;13.64;43.67
21960;BME280;11144;43.030;25.108;2023-10-09T05:03:18;100189.19;;;13.66;43.45
21960;BME280;11144;43.030;25.108;2023-10-09T05:04:59;100199.28;;;13.63;43.46
21960;BME280;11144;43.030;25.108;2023-10-09T05:06:50;100197.28;;;13.65;43.43
21960;BME280;11144;43.030;25.108;2023-10-09T05:08:27;100194.19;;;13.61;43.09
21960;BME280;11144;43.030;25.108;2023-10-09T05:10:06;100213.91;;;13.65;43.05
21960;BME280;11144;43.030;25.108;2023-10-09T05:11:41;100221.00;;;13.65;43.04
21960;BME280;11144;43.030;25.108;2023-10-09T05:13:27;100218.19;;;13.66;43.09
21960;BME280;11144;43.030;25.108;2023-10-09T05:15:14;100219.16;;;13.65;43.15
21960;BME280;11144;43.030;25.108;2023-10-09T05:16:47;100229.34;;;13.68;43.21
21960;BME280;11144;43.030;25.108;2023-10-09T05:18:27;100227.34;;;13.70;43.13
21960;BME280;11144;43.030;25.108;2023-10-09T05:19:59;100233.47;;;13.71;42.87
21960;BME280;11144;43.030;25.108;2023-10-09T05:21:46;100238.19;;;13.75;42.97
21960;BME280;11144;43.030;25.108;2023-10-09T05:23:21;100234.72;;;13.75;42.89
21960;BME280;11144;43.030;25.108;2023-10-09T05:24:56;100239.47;;;13.79;43.02
21960;BME280;11144;43.030;25.108;2023-10-09T05:26:30;100247.38;;;13.79;42.74
21960;BME280;11144;43.030;25.108;2023-10-09T05:28:22;100241.47;;;13.77;42.93
21960;BME280;11144;43.030;25.108;2023-10-09T05:30:04;100240.44;;;13.78;42.50
21960;BME280;11144;43.030;25.108;2023-10-09T05:31:56;100251.00;;;13.78;42.56
21960;BME280;11144;43.030;25.108;2023-10-09T05:33:35;100227.75;;;13.67;42.46
21960;BME280;11144;43.030;25.108;2023-10-09T05:35:10;100245.38;;;13.81;42.43
21960;BME280;11144;43.030;25.108;2023-10-09T05:36:47;100251.28;;;13.83;42.60
21960;BME280;11144;43.030;25.108;2023-10-09T05:38:21;100254.28;;;13.80;42.55
21960;BME280;11144;43.030;25.108;2023-10-09T05:39:56;100253.63;;;13.78;42.76
21960;BME280;11144;43.030;25.108;2023-10-09T05:41:50;100258.56;;;13.81;43.01
21960;BME280;11144;43.030;25.108;2023-10-09T05:43:32;100257.81;;;13.87;42.58
21960;BME280;11144;43.030;25.108;2023-10-09T05:45:23;100251.56;;;13.88;42.52
21960;BME280;11144;43.030;25.108;2023-10-09T05:47:14;100246.13;;;14.04;42.62
21960;BME280;11144;43.030;25.108;2023-10-09T05:49:07;100244.97;;;14.22;42.28
21960;BME280;11144;43.030;25.108;2023-10-09T05:50:52;100248.25;;;14.38;42.62
21960;BME280;11144;43.030;25.108;2023-10-09T05:52:44;100249.16;;;14.60;42.38
21960;BME280;11144;43.030;25.108;2023-10-09T05:54:36;100261.25;;;14.69;42.23
21960;BME280;11144;43.030;25.108;2023-10-09T05:56:23;100263.75;;;14.77;41.84
21960;BME280;11144;43.030;25.108;2023-10-09T05:58:29;100266.69;;;14.82;41.86
21960;BME280;11144;43.030;25.108;2023-10-09T06:00:19;100258.47;;;14.77;41.60
21960;BME280;11144;43.030;25.108;2023-10-09T06:02:10;100265.38;;;14.78;41.38
21960;BME280;11144;43.030;25.108;2023-10-09T06:04:01;100260.22;;;14.70;41.71
21960;BME280;11144;43.030;25.108;2023-10-09T06:05:48;100258.34;;;14.64;41.57
21960;BME280;11144;43.030;25.108;2023-10-09T06:07:34;100260.97;;;14.64;41.66
21960;BME280;11144;43.030;25.108;2023-10-09T06:09:33;100273.06;;;14.58;41.33
21960;BME280;11144;43.030;25.108;2023-10-09T06:11:24;100271.09;;;14.46;41.45
21960;BME280;11144;43.030;25.108;2023-10-09T06:13:11;100278.00;;;14.47;41.76
21960;BME280;11144;43.030;25.108;2023-10-09T06:15:10;100270.00;;;14.55;41.79
21960;BME280;11144;43.030;25.108;2023-10-09T06:17:04;100261.06;;;14.56;41.48
21960;BME280;11144;43.030;25.108;2023-10-09T06:18:55;100278.34;;;14.73;41.63
21960;BME280;11144;43.030;25.108;2023-10-09T06:20:40;100278.41;;;14.80;41.61
21960;BME280;11144;43.030;25.108;2023-10-09T06:22:35;100275.22;;;14.84;41.36
21960;BME280;11144;43.030;25.108;2023-10-09T06:24:23;100274.22;;;14.85;41.48
21960;BME280;11144;43.030;25.108;2023-10-09T06:26:00;100271.84;;;14.90;41.41
21960;BME280;11144;43.030;25.108;2023-10-09T06:27:54;100281.63;;;15.11;41.47
21960;BME280;11144;43.030;25.108;2023-10-09T06:29:30;100284.19;;;15.25;41.20
21960;BME280;11144;43.030;25.108;2023-10-09T06:31:07;100279.59;;;15.48;41.21
21960;BME280;11144;43.030;25.108;2023-10-09T06:32:54;100291.28;;;15.82;40.94
21960;BME280;11144;43.030;25.108;2023-10-09T06:34:46;100288.19;;;16.06;40.58
21960;BME280;11144;43.030;25.108;2023-10-09T06:36:23;100289.38;;;16.31;40.43
21960;BME280;11144;43.030;25.108;2023-10-09T06:38:03;100284.09;;;16.38;40.15
21960;BME280;11144;43.030;25.108;2023-10-09T06:39:56;100293.22;;;16.29;40.26
21960;BME280;11144;43.030;25.108;2023-10-09T06:41:43;100287.50;;;16.25;39.75
21960;BME280;11144;43.030;25.108;2023-10-09T06:43:18;100294.53;;;16.11;39.80
21960;BME280;11144;43.030;25.108;2023-10-09T06:45:00;100290.31;;;16.17;39.90
21960;BME280;11144;43.030;25.108;2023-10-09T06:46:37;100284.22;;;16.23;39.89
21960;BME280;11144;43.030;25.108;2023-10-09T06:48:16;100292.97;;;16.17;39.60
21960;BME280;11144;43.030;25.108;2023-10-09T06:50:23;100288.41;;;16.11;39.49
21960;BME280;11144;43.030;25.108;2023-10-09T06:52:14;100295.56;;;16.10;39.65
21960;BME280;11144;43.030;25.108;2023-10-09T06:54:07;100295.25;;;16.54;39.48
21960;BME280;11144;43.030;25.108;2023-10-09T06:55:48;100287.69;;;16.99;39.67
21960;BME280;11144;43.030;25.108;2023-10-09T06:57:20;100297.13;;;17.27;39.11
21960;BME280;11144;43.030;25.108;2023-10-09T06:59:12;100300.78;;;17.26;39.09
21960;BME280;11144;43.030;25.108;2023-10-09T07:00:55;100284.22;;;17.05;38.77
21960;BME280;11144;43.030;25.108;2023-10-09T07:02:51;100294.00;;;17.04;38.70
21960;BME280;11144;43.030;25.108;2023-10-09T07:04:25;100289.50;;;16.98;39.06
21960;BME280;11144;43.030;25.108;2023-10-09T07:06:12;100299.66;;;16.81;39.04
21960;BME280;11144;43.030;25.108;2023-10-09T07:07:57;100293.03;;;16.64;39.29
21960;BME280;11144;43.030;25.108;2023-10-09T07:09:52;100301.88;;;16.44;39.64
21960;BME280;11144;43.030;25.108;2023-10-09T07:11:43;100296.53;;;16.37;39.88
21960;BME280;11144;43.030;25.108;2023-10-09T07:13:36;100302.56;;;16.52;39.88
21960;BME280;11144;43.030;25.108;2023-10-09T07:15:10;100301.19;;;16.63;39.78
21960;BME280;11144;43.030;25.108;2023-10-09T07:17:03;100295.13;;;16.75;39.38
21960;BME280;11144;43.030;25.108;2023-10-09T07:18:48;100285.00;;;16.85;39.48
21960;BME280;11144;43.030;25.108;2023-10-09T07:20:21;100282.16;;;16.93;39.52
21960;BME280;11144;43.030;25.108;2023-10-09T07:22:22;100287.72;;;17.05;39.59
21960;BME280;11144;43.030;25.108;2023-10-09T07:24:01;100281.00;;;17.09;39.19
21960;BME280;11144;43.030;25.108;2023-10-09T07:25:46;100275.75;;;17.35;39.80
21960;BME280;11144;43.030;25.108;2023-10-09T07:27:31;100280.22;;;17.48;39.21
21960;BME280;11144;43.030;25.108;2023-10-09T07:29:16;100262.28;;;17.30;39.29
21960;BME280;11144;43.030;25.108;2023-10-09T07:30:53;100279.84;;;17.44;38.82
21960;BME280;11144;43.030;25.108;2023-10-09T07:32:29;100288.78;;;17.37;39.43
21960;BME280;11144;43.030;25.108;2023-10-09T07:34:03;100279.59;;;17.33;39.02
21960;BME280;11144;43.030;25.108;2023-10-09T07:35:41;100276.22;;;17.72;39.05
21960;BME280;11144;43.030;25.108;2023-10-09T07:37:22;100293.28;;;18.48;38.91
21960;BME280;11144;43.030;25.108;2023-10-09T07:38:56;100294.56;;;18.96;37.98
21960;BME280;11144;43.030;25.108;2023-10-09T07:40:32;100297.22;;;19.27;37.64
21960;BME280;11144;43.030;25.108;2023-10-09T07:42:24;100286.75;;;19.39;37.10
21960;BME280;11144;43.030;25.108;2023-10-09T07:44:15;100291.66;;;19.42;36.60
21960;BME280;11144;43.030;25.108;2023-10-09T07:46:03;100290.97;;;19.53;37.02
21960;BME280;11144;43.030;25.108;2023-10-09T07:47:56;100281.06;;;20.09;36.91
21960;BME280;11144;43.030;25.108;2023-10-09T07:49:37;100276.25;;;20.61;35.28
21960;BME280;11144;43.030;25.108;2023-10-09T07:51:11;100273.31;;;20.98;35.77
21960;BME280;11144;43.030;25.108;2023-10-09T07:52:46;100275.06;;;21.22;36.18
21960;BME280;11144;43.030;25.108;2023-10-09T07:54:21;100277.97;;;21.74;36.02
21960;BME280;11144;43.030;25.108;2023-10-09T07:56:04;100277.78;;;22.10;35.31
21960;BME280;11144;43.030;25.108;2023-10-09T07:57:39;100284.47;;;22.47;34.83
21960;BME280;11144;43.030;25.108;2023-10-09T07:59:12;100269.59;;;22.51;34.05
21960;BME280;11144;43.030;25.108;2023-10-09T08:00:45;100273.81;;;22.24;33.91
21960;BME280;11144;43.030;25.108;2023-10-09T08:02:38;100278.34;;;22.24;33.20
21960;BME280;11144;43.030;25.108;2023-10-09T08:04:12;100279.47;;;22.39;33.70
21960;BME280;11144;43.030;25.108;2023-10-09T08:05:47;100270.28;;;22.70;33.47
21960;BME280;11144;43.030;25.108;2023-10-09T08:07:19;100272.28;;;22.63;33.38
21960;BME280;11144;43.030;25.108;2023-10-09T08:09:19;100266.34;;;22.49;34.22
21960;BME280;11144;43.030;25.108;2023-10-09T08:11:18;100264.25;;;21.82;33.24
21960;BME280;11144;43.030;25.108;2023-10-09T08:13:31;100264.75;;;21.79;33.67
21960;BME280;11144;43.030;25.108;2023-10-09T08:15:29;100258.03;;;22.11;33.95
21960;BME280;11144;43.030;25.108;2023-10-09T08:17:23;100257.56;;;22.02;32.62
21960;BME280;11144;43.030;25.108;2023-10-09T08:18:59;100246.97;;;22.31;32.91
21960;BME280;11144;43.030;25.108;2023-10-09T08:20:32;100257.75;;;22.47;32.37
21960;BME280;11144;43.030;25.108;2023-10-09T08:22:27;100248.25;;;22.40;30.63
21960;BME280;11144;43.030;25.108;2023-10-09T08:24:25;100261.84;;;22.27;32.51
21960;BME280;11144;43.030;25.108;2023-10-09T08:26:14;100263.22;;;22.41;31.78
21960;BME280;11144;43.030;25.108;2023-10-09T08:28:01;100263.31;;;22.57;32.19
21960;BME280;11144;43.030;25.108;2023-10-09T08:29:52;100271.31;;;22.69;31.82
21960;BME280;11144;43.030;25.108;2023-10-09T08:31:44;100263.75;;;23.06;31.31
21960;BME280;11144;43.030;25.108;2023-10-09T08:33:29;100265.38;;;23.35;31.13
21960;BME280;11144;43.030;25.108;2023-10-09T08:35:19;100253.00;;;23.62;30.70
21960;BME280;11144;43.030;25.108;2023-10-09T08:37:02;100252.59;;;23.87;30.18
21960;BME280;11144;43.030;25.108;2023-10-09T08:38:36;100264.34;;;23.69;29.70